createdAt,value
2018-01-10T00:03:59.850Z,1003.44
2018-01-10T00:08:57.116Z,1003.48
2018-01-10T00:13:52.699Z,1003.47
2018-01-10T00:18:48.642Z,1003.36
2018-01-10T00:23:45.415Z,1003.44
2018-01-10T00:28:42.018Z,1003.40
2018-01-10T00:33:38.922Z,1003.34
2018-01-10T00:38:34.481Z,1003.40
2018-01-10T00:43:31.209Z,1003.51
2018-01-10T00:48:26.764Z,1003.40
2018-01-10T00:53:24.306Z,1003.42
2018-01-10T00:58:20.944Z,1003.33
2018-01-10T01:03:17.318Z,1003.30
2018-01-10T01:08:13.811Z,1003.33
2018-01-10T01:13:11.366Z,1003.45
2018-01-10T01:18:09.267Z,1003.46
2018-01-10T01:23:05.506Z,1003.50
2018-01-10T01:28:00.939Z,1003.43
2018-01-10T01:32:57.714Z,1003.35
2018-01-10T01:37:53.356Z,1003.41
2018-01-10T01:42:49.307Z,1003.51
2018-01-10T01:47:45.648Z,1003.49
2018-01-10T01:52:42.498Z,1003.51
2018-01-10T01:57:39.033Z,1003.48
2018-01-10T02:02:34.356Z,1003.38
2018-01-10T02:07:29.993Z,1003.43
2018-01-10T02:12:25.684Z,1003.41
2018-01-10T02:17:21.282Z,1003.35
2018-01-10T02:22:17.040Z,1003.37
2018-01-10T02:27:13.166Z,1003.34
2018-01-10T02:32:09.743Z,1003.30
2018-01-10T02:37:06.668Z,1003.23
2018-01-10T02:42:02.227Z,1003.20
2018-01-10T02:46:57.874Z,1003.23
2018-01-10T02:51:53.633Z,1003.18
2018-01-10T02:56:50.686Z,1003.07
2018-01-10T03:01:45.670Z,1003.21
2018-01-10T03:06:43.246Z,1003.23
2018-01-10T03:11:40.533Z,1003.09
2018-01-10T03:16:36.396Z,1003.19
2018-01-10T03:21:34.010Z,1003.19
2018-01-10T03:26:30.324Z,1003.09
2018-01-10T03:31:26.662Z,1003.15
2018-01-10T03:36:23.796Z,1003.09
2018-01-10T03:41:18.945Z,1003.05
2018-01-10T03:46:14.774Z,1003.02
2018-01-10T03:51:11.334Z,1003.04
2018-01-10T03:56:06.683Z,1003.08
2018-01-10T04:01:03.459Z,1003.03
2018-01-10T04:06:00.009Z,1003.11
2018-01-10T04:10:56.925Z,1003.03
2018-01-10T04:15:52.461Z,1003.06
2018-01-10T04:20:49.164Z,1003.08
2018-01-10T04:25:45.843Z,1003.05
2018-01-10T04:30:42.386Z,1002.96
2018-01-10T04:35:37.872Z,1002.93
2018-01-10T04:40:34.604Z,1002.98
2018-01-10T04:45:30.274Z,1002.93
2018-01-10T04:50:26.988Z,1002.99
2018-01-10T04:55:22.546Z,1002.92
2018-01-10T05:00:18.270Z,1002.93
2018-01-10T05:05:15.045Z,1002.95
2018-01-10T05:10:10.745Z,1002.99
2018-01-10T05:15:09.486Z,1002.84
2018-01-10T05:20:04.422Z,1002.84
2018-01-10T05:25:00.253Z,1002.77
2018-01-10T05:29:58.145Z,1002.88
2018-01-10T05:34:54.747Z,1002.85
2018-01-10T05:39:51.424Z,1002.82
2018-01-10T05:44:47.066Z,1002.85
2018-01-10T05:49:44.693Z,1002.87
2018-01-10T05:54:40.476Z,1002.84
2018-01-10T05:59:37.995Z,1002.78
2018-01-10T06:04:35.207Z,1002.72
2018-01-10T06:09:31.286Z,1002.77
2018-01-10T06:14:27.764Z,1002.78
2018-01-10T06:19:24.345Z,1002.85
2018-01-10T06:24:20.249Z,1002.84
2018-01-10T06:29:16.052Z,1002.81
2018-01-10T06:34:11.757Z,1002.89
2018-01-10T06:39:07.806Z,1002.93
2018-01-10T06:44:04.039Z,1002.95
2018-01-10T06:48:59.867Z,1003.00
2018-01-10T06:53:55.677Z,1003.00
2018-01-10T06:58:52.376Z,1002.93
2018-01-10T07:03:49.831Z,1002.91
2018-01-10T07:08:44.742Z,1003.09
2018-01-10T07:13:40.369Z,1003.07
2018-01-10T07:18:36.061Z,1003.06
2018-01-10T07:23:31.946Z,1002.99
2018-01-10T07:28:27.876Z,1003.10
2018-01-10T07:33:24.606Z,1003.06
2018-01-10T07:38:21.556Z,1003.08
2018-01-10T07:43:19.077Z,1003.12
2018-01-10T07:48:15.389Z,1003.15
2018-01-10T07:53:10.888Z,1003.10
2018-01-10T07:58:07.795Z,1003.08
2018-01-10T08:03:04.305Z,1003.20
2018-01-10T08:08:01.064Z,1003.20
2018-01-10T08:12:57.729Z,1003.31
2018-01-10T08:17:54.181Z,1003.23
2018-01-10T08:22:52.518Z,1003.23
2018-01-10T08:27:48.918Z,1003.23
2018-01-10T08:32:45.703Z,1003.25
2018-01-10T08:37:41.328Z,1003.28
2018-01-10T08:47:42.422Z,1003.33
2018-01-10T08:52:39.214Z,1003.29
2018-01-10T08:57:36.178Z,1003.39
2018-01-10T09:02:34.743Z,1003.35
2018-01-10T09:07:31.912Z,1003.40
2018-01-10T09:12:27.405Z,1003.46
2018-01-10T09:17:24.281Z,1003.53
2018-01-10T09:22:20.990Z,1003.38
2018-01-10T09:27:19.144Z,1003.39
2018-01-10T09:32:14.752Z,1003.48
2018-01-10T09:37:11.673Z,1003.38
2018-01-10T09:42:11.218Z,1003.50
2018-01-10T09:47:08.220Z,1003.43
2018-01-10T09:52:05.876Z,1003.44
2018-01-10T10:07:07.132Z,1003.33
2018-01-10T10:12:04.100Z,1003.28
2018-01-10T10:22:04.058Z,1003.12
2018-01-10T10:27:01.784Z,1003.17
2018-01-10T10:37:05.596Z,1003.04
2018-01-10T10:42:05.030Z,1003.08
2018-01-10T10:47:06.059Z,1003.05
2018-01-10T10:52:03.664Z,1002.92
2018-01-10T10:56:59.896Z,1003.00
2018-01-10T11:01:56.085Z,1003.01
2018-01-10T11:06:53.299Z,1002.97
2018-01-10T11:11:50.162Z,1002.92
2018-01-10T11:16:47.683Z,1002.88
2018-01-10T11:21:43.055Z,1002.79
2018-01-10T11:26:41.231Z,1002.79
2018-01-10T11:31:37.934Z,1002.63
2018-01-10T11:36:35.172Z,1002.60
2018-01-10T11:41:32.700Z,1002.49
2018-01-10T11:46:28.628Z,1002.43
2018-01-10T11:51:24.418Z,1002.50
2018-01-10T11:56:22.774Z,1002.50
2018-01-10T12:01:19.962Z,1002.45
2018-01-10T12:06:17.635Z,1002.40
2018-01-10T12:11:15.043Z,1002.37
2018-01-10T12:16:11.243Z,1002.39
2018-01-10T12:21:09.073Z,1002.37
2018-01-10T12:26:05.004Z,1002.21
2018-01-10T12:31:03.584Z,1002.31
2018-01-10T12:35:59.520Z,1002.24
2018-01-10T12:40:58.440Z,1002.24
2018-01-10T12:45:55.688Z,1002.21
2018-01-10T12:50:53.442Z,1002.06
2018-01-10T12:55:49.693Z,1002.13
2018-01-10T13:00:45.937Z,1002.24
2018-01-10T13:05:42.753Z,1002.14
2018-01-10T13:10:38.120Z,1002.24
2018-01-10T13:15:38.503Z,1002.24
2018-01-10T13:20:38.262Z,1002.18
2018-01-10T13:25:35.954Z,1002.29
2018-01-10T13:30:33.237Z,1002.23
2018-01-10T13:35:29.714Z,1002.24
2018-01-10T13:40:26.910Z,1002.28
2018-01-10T13:45:23.784Z,1002.18
2018-01-10T13:50:20.888Z,1002.32
2018-01-10T13:55:18.887Z,1002.31
2018-01-10T14:00:14.235Z,1002.36
2018-01-10T14:05:11.663Z,1002.33
2018-01-10T14:10:09.266Z,1002.34
2018-01-10T14:15:05.474Z,1002.34
2018-01-10T14:20:01.180Z,1002.43
2018-01-10T14:24:57.945Z,1002.42
2018-01-10T14:29:53.629Z,1002.43
2018-01-10T14:34:50.382Z,1002.43
2018-01-10T14:39:47.146Z,1002.47
2018-01-10T14:44:42.647Z,1002.50
2018-01-10T14:49:39.885Z,1002.56
2018-01-10T14:54:36.340Z,1002.58
2018-01-10T14:59:32.733Z,1002.66
2018-01-10T15:04:28.532Z,1002.56
2018-01-10T15:09:25.165Z,1002.64
2018-01-10T15:14:20.581Z,1002.59
2018-01-10T15:19:16.256Z,1002.64
2018-01-10T15:24:11.955Z,1002.75
2018-01-10T15:29:09.605Z,1002.75
2018-01-10T15:34:09.069Z,1002.75
2018-01-10T15:39:05.217Z,1002.86
2018-01-10T15:44:02.631Z,1002.85
2018-01-10T15:48:58.834Z,1002.90
2018-01-10T15:53:54.397Z,1002.85
2018-01-10T15:58:50.971Z,1002.84
2018-01-10T16:03:47.431Z,1002.91
2018-01-10T16:08:42.586Z,1002.84
2018-01-10T16:13:37.830Z,1002.93
2018-01-10T16:18:34.702Z,1002.97
2018-01-10T16:23:31.651Z,1002.97
2018-01-10T16:28:27.892Z,1003.02
2018-01-10T16:33:23.315Z,1002.98
2018-01-10T16:38:19.893Z,1003.03
2018-01-10T16:43:17.317Z,1003.10
2018-01-10T16:48:13.625Z,1002.99
2018-01-10T16:53:10.139Z,1003.12
2018-01-10T16:58:06.690Z,1003.14
2018-01-10T17:03:03.135Z,1003.13
2018-01-10T17:07:59.504Z,1003.21
2018-01-10T17:12:56.632Z,1003.21
2018-01-10T17:17:53.631Z,1003.25
2018-01-10T17:22:49.721Z,1003.24
2018-01-10T17:27:46.863Z,1003.32
2018-01-10T17:32:42.724Z,1003.33
2018-01-10T17:37:38.554Z,1003.30
2018-01-10T17:42:35.148Z,1003.43
2018-01-10T17:47:30.547Z,1003.49
2018-01-10T17:52:27.218Z,1003.46
2018-01-10T17:57:23.669Z,1003.51
2018-01-10T18:02:21.041Z,1003.53
2018-01-10T18:07:16.064Z,1003.46
2018-01-10T18:12:12.088Z,1003.54
2018-01-10T18:17:08.950Z,1003.57
2018-01-10T18:22:04.239Z,1003.55
2018-01-10T18:27:00.035Z,1003.56
2018-01-10T18:31:55.716Z,1003.51
2018-01-10T18:36:51.161Z,1003.68
2018-01-10T18:41:47.927Z,1003.64
2018-01-10T18:46:44.863Z,1003.71
2018-01-10T18:51:40.417Z,1003.73
2018-01-10T18:56:36.319Z,1003.80
2018-01-10T19:01:33.307Z,1003.80
2018-01-10T19:06:29.862Z,1003.86
2018-01-10T19:11:25.383Z,1003.80
2018-01-10T19:16:22.807Z,1003.91
2018-01-10T19:21:19.061Z,1003.86
2018-01-10T19:26:14.415Z,1003.88
2018-01-10T19:31:11.241Z,1003.84
2018-01-10T19:36:06.619Z,1003.95
2018-01-10T19:41:02.230Z,1003.91
2018-01-10T19:46:00.039Z,1003.93
2018-01-10T19:50:56.309Z,1004.03
2018-01-10T19:55:55.587Z,1004.07
2018-01-10T20:00:51.751Z,1004.01
2018-01-10T20:05:47.024Z,1004.11
2018-01-10T20:10:42.460Z,1004.08
2018-01-10T20:15:38.101Z,1004.16
2018-01-10T20:20:33.894Z,1004.27
2018-01-10T20:25:30.511Z,1004.30
2018-01-10T20:30:26.860Z,1004.30
2018-01-10T20:35:23.295Z,1004.33
2018-01-10T20:40:20.205Z,1004.34
2018-01-10T20:45:15.819Z,1004.32
2018-01-10T20:50:13.660Z,1004.25
2018-01-10T20:55:09.102Z,1004.32
2018-01-10T21:00:04.800Z,1004.43
2018-01-10T21:05:01.549Z,1004.47
2018-01-10T21:09:56.954Z,1004.53
2018-01-10T21:14:52.542Z,1004.55
2018-01-10T21:19:48.270Z,1004.57
2018-01-10T21:24:43.759Z,1004.48
2018-01-10T21:29:40.520Z,1004.53
2018-01-10T21:34:36.198Z,1004.41
2018-01-10T21:39:31.826Z,1004.54
2018-01-10T21:44:28.922Z,1004.48
2018-01-10T21:49:24.470Z,1004.44
2018-01-10T21:54:21.715Z,1004.47
2018-01-10T21:59:17.101Z,1004.52
2018-01-10T22:04:14.729Z,1004.52
2018-01-10T22:09:09.961Z,1004.56
2018-01-10T22:14:06.443Z,1004.55
2018-01-10T22:19:02.821Z,1004.53
2018-01-10T22:23:59.682Z,1004.50
2018-01-10T22:28:55.227Z,1004.51
2018-01-10T22:33:50.777Z,1004.56
2018-01-10T22:38:46.494Z,1004.60
2018-01-10T22:43:43.201Z,1004.56
2018-01-10T22:48:39.638Z,1004.52
2018-01-10T22:53:36.377Z,1004.53
2018-01-10T22:58:31.642Z,1004.68
2018-01-10T23:03:27.561Z,1004.80
2018-01-10T23:08:24.370Z,1004.73
2018-01-10T23:13:19.794Z,1004.73
2018-01-10T23:18:17.580Z,1004.71
2018-01-10T23:23:12.933Z,1004.75
2018-01-10T23:28:09.722Z,1004.83
2018-01-10T23:33:04.821Z,1004.85
2018-01-10T23:38:01.731Z,1004.91
2018-01-10T23:42:57.228Z,1004.94
2018-01-10T23:47:53.072Z,1005.04
2018-01-10T23:52:49.953Z,1004.99
2018-01-10T23:57:45.066Z,1005.00
